5G2 weather

Indian Lake Airport
Central City, Pennsylvania, United States

Public forecast

Using degrees Fahrenheit for public forecast. Weather courtesy of forecast.io.

Closest aviation weather report (METAR) to Indian Lake Airport

Closest report is Somerset County Airport, 7.8 nm (14.4 km) W. Retrieved 2020/06/01 00:35 UTC (35 minutes ago):

K2G9 010035Z AUTO 33004KT 10SM CLR 10/00 A3023 RMK AO2

Closest aviation forecast (TAF) to Indian Lake Airport

Closest forecast is John Murtha Johnstown Cambria County Airport, 15.7 nm (29.1 km) N. Retrieved 2020-06-01 00:30 UTC (40 minutes ago):

TAF KJST 312328Z 0100/0124 31010G20KT P6SM SCT050 FM010300 28007KT P6SM SKC FM011300 30010G20KT P6SM FEW250